createdAt,value
2023-08-25T00:00:50.514Z,97.19
2023-08-25T00:01:50.560Z,97.29
2023-08-25T00:02:50.468Z,97.29
2023-08-25T00:03:50.530Z,97.29
2023-08-25T00:04:50.544Z,97.29
2023-08-25T00:05:50.416Z,97.39
2023-08-25T00:06:50.400Z,97.29
2023-08-25T00:07:50.604Z,97.39
2023-08-25T00:08:50.379Z,97.39
2023-08-25T00:09:50.370Z,97.33
2023-08-25T00:10:50.387Z,97.44
2023-08-25T00:11:50.345Z,97.33
2023-08-25T00:12:50.334Z,97.44
2023-08-25T00:13:50.314Z,97.44
2023-08-25T00:14:50.301Z,97.49
2023-08-25T00:15:50.372Z,97.39
2023-08-25T00:16:50.323Z,97.39
2023-08-25T00:17:50.269Z,97.39
2023-08-25T00:18:50.254Z,97.39
2023-08-25T00:19:50.237Z,97.39
2023-08-25T00:20:50.224Z,97.29
2023-08-25T00:21:50.213Z,97.29
2023-08-25T00:22:50.214Z,97.29
2023-08-25T00:23:50.194Z,97.19
2023-08-25T00:24:50.176Z,97.19
2023-08-25T00:25:50.169Z,97.29
2023-08-25T00:26:50.179Z,97.29
2023-08-25T00:27:50.157Z,97.29
2023-08-25T00:28:50.123Z,97.29
2023-08-25T00:29:50.112Z,97.19
2023-08-25T00:30:50.169Z,97.09
2023-08-25T00:31:50.092Z,97.09
2023-08-25T00:32:50.170Z,97.09
2023-08-25T00:33:50.110Z,97.09
2023-08-25T00:34:50.059Z,97.19
2023-08-25T00:35:50.079Z,97.29
2023-08-25T00:36:50.023Z,97.19
2023-08-25T00:37:50.123Z,97.19
2023-08-25T00:38:50.033Z,97.09
2023-08-25T00:39:49.981Z,96.98
2023-08-25T00:40:49.968Z,96.89
2023-08-25T00:41:49.956Z,96.78
2023-08-25T00:42:49.959Z,96.78
2023-08-25T00:43:49.955Z,96.78
2023-08-25T00:44:49.923Z,96.78
2023-08-25T00:45:49.916Z,96.69
2023-08-25T00:46:49.928Z,96.69
2023-08-25T00:47:49.904Z,96.78
2023-08-25T00:48:49.872Z,96.78
2023-08-25T00:49:49.908Z,96.59
2023-08-25T00:50:49.855Z,96.44
2023-08-25T00:51:49.836Z,96.34
2023-08-25T00:52:49.823Z,96.24
2023-08-25T00:53:49.821Z,96.14
2023-08-25T00:54:49.792Z,95.94
2023-08-25T00:55:49.801Z,95.84
2023-08-25T00:56:49.768Z,95.73
2023-08-25T00:57:49.761Z,95.84
2023-08-25T00:58:49.751Z,95.73
2023-08-25T00:59:49.728Z,95.73
2023-08-25T01:00:49.781Z,95.64
2023-08-25T01:01:49.765Z,95.43
2023-08-25T01:02:49.879Z,95.18
2023-08-25T01:03:49.674Z,95.03
2023-08-25T01:04:49.730Z,94.89
2023-08-25T01:05:49.799Z,94.89
2023-08-25T01:06:49.647Z,94.89
2023-08-25T01:07:49.645Z,94.89
2023-08-25T01:08:49.625Z,94.79
2023-08-25T01:09:49.637Z,94.79
2023-08-25T01:10:49.624Z,94.68
2023-08-25T01:11:49.640Z,94.68
2023-08-25T01:12:49.661Z,94.68
2023-08-25T01:13:49.664Z,94.59
2023-08-25T01:14:49.543Z,94.59
2023-08-25T01:15:49.520Z,94.79
2023-08-25T01:16:49.571Z,94.68
2023-08-25T01:17:49.527Z,94.73
2023-08-25T01:18:49.498Z,94.68
2023-08-25T01:19:49.476Z,94.83
2023-08-25T01:20:49.469Z,94.83
2023-08-25T01:21:49.463Z,94.93
2023-08-25T01:22:50.339Z,94.93
2023-08-25T01:23:49.433Z,94.93
2023-08-25T01:24:49.432Z,95.03
2023-08-25T01:25:49.428Z,95.03
2023-08-25T01:26:49.381Z,95.03
2023-08-25T01:27:49.371Z,95.13
2023-08-25T01:28:49.368Z,95.13
2023-08-25T01:29:49.347Z,95.13
2023-08-25T01:30:49.455Z,95.23
2023-08-25T01:31:49.320Z,95.23
2023-08-25T01:32:49.349Z,95.23
2023-08-25T01:33:49.300Z,95.13
2023-08-25T01:34:49.293Z,95.13
2023-08-25T01:35:49.281Z,95.13
2023-08-25T01:36:49.299Z,95.23
2023-08-25T01:37:49.244Z,95.13
2023-08-25T01:38:49.236Z,95.13
2023-08-25T01:39:49.217Z,95.23
2023-08-25T01:40:49.194Z,95.23
2023-08-25T01:41:49.186Z,95.23
2023-08-25T01:42:49.185Z,95.33
2023-08-25T01:43:49.170Z,95.43
2023-08-25T01:44:49.161Z,95.43
2023-08-25T01:45:49.178Z,95.43
2023-08-25T01:46:49.119Z,95.43
2023-08-25T01:47:49.128Z,95.43
2023-08-25T01:48:49.108Z,95.33
2023-08-25T01:49:49.077Z,95.33
2023-08-25T01:50:49.067Z,95.43
2023-08-25T01:51:49.064Z,95.33
2023-08-25T01:52:49.043Z,95.48
2023-08-25T01:53:49.036Z,95.48
2023-08-25T01:54:49.020Z,95.48
2023-08-25T01:55:49.009Z,95.48
2023-08-25T01:56:49.021Z,95.38
2023-08-25T01:57:48.978Z,95.38
2023-08-25T01:58:49.583Z,95.38
2023-08-25T01:59:48.946Z,95.38
2023-08-25T02:00:48.944Z,95.48
2023-08-25T02:01:48.938Z,95.58
2023-08-25T02:02:49.925Z,95.58
2023-08-25T02:03:48.898Z,95.58
2023-08-25T02:04:48.914Z,95.78
2023-08-25T02:05:48.905Z,95.78
2023-08-25T02:06:48.863Z,95.93
2023-08-25T02:07:48.867Z,96.03
2023-08-25T02:08:48.925Z,96.13
2023-08-25T02:09:48.821Z,96.23
2023-08-25T02:10:48.816Z,96.33
2023-08-25T02:11:48.795Z,96.43
2023-08-25T02:12:48.781Z,96.53
2023-08-25T02:13:48.776Z,96.63
2023-08-25T02:14:48.770Z,96.73
2023-08-25T02:15:48.786Z,96.83
2023-08-25T02:16:48.741Z,96.93
2023-08-25T02:17:48.878Z,97.03
2023-08-25T02:18:48.717Z,97.13
2023-08-25T02:19:48.689Z,97.24
2023-08-25T02:20:48.684Z,97.24
2023-08-25T02:21:48.672Z,97.24
2023-08-25T02:22:48.650Z,97.18
2023-08-25T02:23:48.718Z,97.08
2023-08-25T02:24:48.670Z,97.08
2023-08-25T02:25:51.521Z,97.18
2023-08-25T02:26:48.607Z,97.18
2023-08-25T02:27:48.596Z,97.28
2023-08-25T02:28:48.576Z,97.28
2023-08-25T02:29:48.575Z,97.28
2023-08-25T02:30:48.559Z,97.38
2023-08-25T02:31:48.608Z,97.49
2023-08-25T02:32:48.563Z,97.58
2023-08-25T02:33:48.518Z,97.89
2023-08-25T02:34:48.503Z,97.99
2023-08-25T02:35:48.490Z,98.09
2023-08-25T02:36:48.490Z,98.29
2023-08-25T02:37:48.509Z,98.39
2023-08-25T02:38:48.453Z,98.49
2023-08-25T02:39:48.435Z,98.59
2023-08-25T02:40:48.424Z,98.59
2023-08-25T02:41:48.427Z,98.64
2023-08-25T02:42:48.396Z,98.64
2023-08-25T02:43:48.391Z,98.74
2023-08-25T02:44:48.378Z,98.74
2023-08-25T02:45:48.435Z,98.84
2023-08-25T02:46:48.348Z,99.14
2023-08-25T02:47:48.395Z,99.14
2023-08-25T02:48:48.320Z,99.54
2023-08-25T02:49:48.312Z,99.85
2023-08-25T02:50:48.307Z,99.95
2023-08-25T02:51:48.281Z,99.95
2023-08-25T02:52:48.274Z,99.95
2023-08-25T02:53:48.254Z,99.95
2023-08-25T02:54:48.244Z,99.99
2023-08-25T02:55:48.249Z,99.99
2023-08-25T02:56:48.227Z,99.99
2023-08-25T02:57:48.310Z,99.99
2023-08-25T02:58:48.900Z,99.99
2023-08-25T02:59:48.188Z,99.99
2023-08-25T03:00:48.172Z,99.99
2023-08-25T03:01:48.173Z,99.99
2023-08-25T03:02:48.249Z,99.99
2023-08-25T03:03:48.129Z,99.99
2023-08-25T03:04:48.125Z,99.99
2023-08-25T03:05:48.107Z,99.99
2023-08-25T03:06:48.092Z,99.99
2023-08-25T03:07:48.113Z,99.99
2023-08-25T03:08:48.058Z,99.99
2023-08-25T03:09:48.046Z,99.99
2023-08-25T03:10:48.037Z,99.99
2023-08-25T03:11:48.030Z,99.99
2023-08-25T03:12:48.008Z,99.99
2023-08-25T03:13:48.037Z,99.99
2023-08-25T03:14:47.980Z,99.99
2023-08-25T03:15:47.985Z,99.99
2023-08-25T03:16:47.974Z,99.99
2023-08-25T03:17:47.980Z,99.99
2023-08-25T03:18:47.942Z,99.99
2023-08-25T03:19:47.931Z,99.99
2023-08-25T03:20:47.905Z,99.99
2023-08-25T03:21:47.911Z,99.99
2023-08-25T03:22:47.883Z,99.99
2023-08-25T03:23:47.876Z,99.99
2023-08-25T03:24:47.893Z,99.99
2023-08-25T03:25:47.847Z,99.99
2023-08-25T03:26:47.866Z,99.99
2023-08-25T03:27:47.821Z,99.99
2023-08-25T03:28:47.804Z,99.99
2023-08-25T03:29:47.797Z,99.99
2023-08-25T03:32:07.163Z,99.99
2023-08-25T03:33:07.508Z,99.99
2023-08-25T03:34:06.966Z,99.99
2023-08-25T03:35:06.973Z,99.99
2023-08-25T03:36:06.933Z,99.99
2023-08-25T03:37:06.983Z,99.99
2023-08-25T03:38:06.936Z,99.99
2023-08-25T03:39:06.933Z,99.99
2023-08-25T03:40:07.726Z,99.99
2023-08-25T03:41:06.880Z,99.99
2023-08-25T03:42:08.351Z,99.99
2023-08-25T03:43:06.912Z,99.99
2023-08-25T03:44:06.861Z,99.99
2023-08-25T03:45:06.844Z,99.99
2023-08-25T03:46:06.841Z,99.99
2023-08-25T03:47:06.811Z,99.99
2023-08-25T03:48:06.857Z,99.99
2023-08-25T03:49:06.816Z,99.99
2023-08-25T03:50:06.763Z,99.99
2023-08-25T03:51:06.738Z,99.99
2023-08-25T03:52:06.784Z,99.99
2023-08-25T03:53:06.759Z,99.99
2023-08-25T03:54:06.714Z,99.99
2023-08-25T03:55:06.727Z,99.99
2023-08-25T03:56:06.673Z,99.99
2023-08-25T03:57:06.684Z,99.99
2023-08-25T03:58:06.645Z,99.99
2023-08-25T03:59:06.648Z,99.99
2023-08-25T04:00:06.646Z,99.99
2023-08-25T04:01:06.662Z,99.99
2023-08-25T04:02:06.625Z,99.99
2023-08-25T04:03:06.682Z,99.99
2023-08-25T04:04:06.593Z,99.99
2023-08-25T04:05:06.558Z,99.99
2023-08-25T04:06:06.582Z,99.99
2023-08-25T04:07:06.529Z,99.99
2023-08-25T04:08:06.569Z,99.99
2023-08-25T04:09:06.536Z,99.99
2023-08-25T04:10:06.510Z,99.99
2023-08-25T04:11:06.680Z,99.99
2023-08-25T04:12:06.490Z,99.99
2023-08-25T04:13:06.470Z,99.99
2023-08-25T04:14:06.460Z,99.99
2023-08-25T04:15:06.454Z,99.99
2023-08-25T04:16:06.437Z,99.99
2023-08-25T04:17:06.422Z,99.99
2023-08-25T04:18:06.401Z,99.99
2023-08-25T04:19:06.405Z,99.99
2023-08-25T04:20:06.383Z,99.99
2023-08-25T04:21:06.370Z,99.99
2023-08-25T04:22:06.355Z,99.99
2023-08-25T04:23:06.335Z,99.99
2023-08-25T04:24:06.333Z,99.99
2023-08-25T04:25:06.290Z,99.99
2023-08-25T04:26:06.306Z,99.99
2023-08-25T04:27:06.340Z,99.99
2023-08-25T04:28:06.258Z,99.99
2023-08-25T04:29:06.241Z,99.99
2023-08-25T04:30:06.253Z,99.99
2023-08-25T04:31:06.306Z,99.99
2023-08-25T04:32:06.235Z,99.99
2023-08-25T04:33:06.241Z,99.99
2023-08-25T04:34:06.178Z,99.99
2023-08-25T04:35:06.155Z,99.99
2023-08-25T04:36:06.155Z,99.99
2023-08-25T04:37:06.161Z,99.99
2023-08-25T04:38:06.121Z,99.99
2023-08-25T04:39:06.143Z,99.99
2023-08-25T04:40:06.139Z,99.99
2023-08-25T04:41:06.132Z,99.99
2023-08-25T04:42:06.097Z,99.99
2023-08-25T04:43:06.081Z,99.99
2023-08-25T04:44:06.077Z,99.99
2023-08-25T04:45:06.071Z,99.99
2023-08-25T04:46:06.145Z,99.99
2023-08-25T04:47:06.016Z,99.99
2023-08-25T04:48:06.009Z,99.99
2023-08-25T04:49:05.969Z,99.99
2023-08-25T04:50:05.980Z,99.99
2023-08-25T04:51:05.970Z,99.99
2023-08-25T04:52:05.935Z,99.99
2023-08-25T04:53:05.917Z,99.99
2023-08-25T04:54:05.930Z,99.99
2023-08-25T04:55:05.902Z,99.99
2023-08-25T04:56:05.905Z,99.99
2023-08-25T04:57:05.881Z,99.99
2023-08-25T04:58:05.886Z,99.99
2023-08-25T04:59:05.872Z,99.99
2023-08-25T05:00:05.857Z,99.99
2023-08-25T05:01:05.977Z,99.99
2023-08-25T05:02:05.826Z,99.99
2023-08-25T05:03:05.916Z,99.99
2023-08-25T05:04:05.787Z,99.99
2023-08-25T05:05:05.756Z,99.99
2023-08-25T05:06:05.772Z,99.99
2023-08-25T05:07:05.773Z,99.99
2023-08-25T05:08:05.725Z,99.99
2023-08-25T05:09:05.728Z,99.99
2023-08-25T05:10:05.698Z,99.99
2023-08-25T05:11:05.713Z,99.99
2023-08-25T05:12:05.694Z,99.99
2023-08-25T05:13:05.695Z,99.99
2023-08-25T05:14:05.660Z,99.99
2023-08-25T05:15:05.637Z,99.99
2023-08-25T05:16:05.665Z,99.99
2023-08-25T05:17:05.615Z,99.99
2023-08-25T05:18:05.646Z,99.99
2023-08-25T05:19:05.682Z,99.99
2023-08-25T05:20:05.566Z,99.99
2023-08-25T05:21:05.563Z,99.99
2023-08-25T05:22:05.558Z,99.99
2023-08-25T05:23:05.542Z,99.99
2023-08-25T05:24:05.530Z,99.99
2023-08-25T05:25:05.553Z,99.99
2023-08-25T05:26:05.477Z,99.99
2023-08-25T05:27:05.496Z,99.99
2023-08-25T05:28:05.455Z,99.99
2023-08-25T05:29:05.522Z,99.99
2023-08-25T05:30:05.455Z,99.99
2023-08-25T05:31:05.616Z,99.99
2023-08-25T05:32:05.436Z,99.99
2023-08-25T05:33:05.428Z,99.99
2023-08-25T05:34:05.391Z,99.99
2023-08-25T05:35:05.357Z,99.99
2023-08-25T05:36:05.366Z,99.99
2023-08-25T05:37:05.363Z,99.99
2023-08-25T05:38:05.312Z,99.99
2023-08-25T05:39:06.893Z,99.99
2023-08-25T05:40:05.314Z,99.99
2023-08-25T05:41:05.303Z,99.99
2023-08-25T05:42:05.267Z,99.99
2023-08-25T05:43:05.299Z,99.99
2023-08-25T05:44:05.264Z,99.99
2023-08-25T05:45:05.219Z,99.99
2023-08-25T05:46:05.258Z,99.99
2023-08-25T05:47:05.224Z,99.99
2023-08-25T05:48:05.269Z,99.99
2023-08-25T05:49:05.161Z,99.99
2023-08-25T05:50:05.178Z,99.99
2023-08-25T05:51:05.135Z,99.99
2023-08-25T05:52:05.157Z,99.99
2023-08-25T05:53:05.109Z,99.99
2023-08-25T05:54:05.099Z,99.99
2023-08-25T05:55:05.993Z,99.99
2023-08-25T05:56:05.101Z,99.99
2023-08-25T05:57:05.081Z,99.99
2023-08-25T05:58:05.089Z,99.99
2023-08-25T05:59:05.025Z,99.99
2023-08-25T06:00:05.078Z,99.99
2023-08-25T06:01:05.028Z,99.99
2023-08-25T06:02:05.014Z,99.99
2023-08-25T06:03:05.051Z,99.99
2023-08-25T06:04:05.079Z,99.99
2023-08-25T06:05:04.980Z,99.99
2023-08-25T06:06:04.939Z,99.99
2023-08-25T06:07:04.934Z,99.99
2023-08-25T06:08:04.916Z,99.99
2023-08-25T06:09:04.898Z,99.99
2023-08-25T06:10:04.956Z,99.99
2023-08-25T06:11:04.881Z,99.99
2023-08-25T06:12:05.646Z,99.99
2023-08-25T06:13:04.868Z,99.99
2023-08-25T06:14:04.840Z,99.99
2023-08-25T06:15:04.820Z,99.99
2023-08-25T06:16:04.864Z,99.99
2023-08-25T06:17:04.818Z,99.99
2023-08-25T06:18:04.813Z,99.99
2023-08-25T06:19:04.776Z,99.99
2023-08-25T06:20:04.775Z,99.99
2023-08-25T06:21:04.745Z,99.99
2023-08-25T06:22:08.501Z,99.99
2023-08-25T06:23:04.758Z,99.99
2023-08-25T06:24:04.717Z,99.99
2023-08-25T06:25:04.775Z,99.99
2023-08-25T06:26:04.710Z,99.99
2023-08-25T06:27:04.774Z,99.99
2023-08-25T06:28:04.676Z,99.99
2023-08-25T06:29:04.642Z,99.99
2023-08-25T06:30:04.707Z,99.99
2023-08-25T06:31:04.621Z,99.99
2023-08-25T06:32:04.624Z,99.99
2023-08-25T06:33:04.639Z,99.99
2023-08-25T06:34:04.588Z,99.99
2023-08-25T06:35:04.826Z,99.99
2023-08-25T06:36:04.575Z,99.99
2023-08-25T06:37:04.569Z,99.99
2023-08-25T06:38:04.525Z,99.99
2023-08-25T06:39:04.520Z,99.99
2023-08-25T06:40:04.530Z,99.99
2023-08-25T06:41:05.892Z,99.99
2023-08-25T06:42:04.560Z,99.99
2023-08-25T06:43:04.499Z,99.99
2023-08-25T06:44:04.448Z,99.99
2023-08-25T06:45:04.469Z,99.81
2023-08-25T06:46:04.478Z,99.21
2023-08-25T06:47:04.437Z,98.80
2023-08-25T06:48:04.454Z,98.50
2023-08-25T06:49:04.420Z,98.40
2023-08-25T06:50:06.490Z,98.40
2023-08-25T06:51:04.366Z,98.10
2023-08-25T06:52:04.370Z,97.70
2023-08-25T06:53:04.365Z,97.45
2023-08-25T06:54:07.339Z,97.55
2023-08-25T06:55:04.388Z,96.95
2023-08-25T06:56:04.373Z,96.55
2023-08-25T06:57:04.311Z,96.20
2023-08-25T06:58:04.311Z,96.20
2023-08-25T06:59:04.286Z,96.10
2023-08-25T07:00:04.279Z,95.80
2023-08-25T07:01:04.310Z,95.15
2023-08-25T07:02:04.261Z,94.65
2023-08-25T07:03:06.991Z,94.05
2023-08-25T07:04:04.262Z,94.05
2023-08-25T07:05:04.210Z,94.35
2023-08-25T07:06:04.247Z,94.05
2023-08-25T07:07:05.111Z,94.10
2023-08-25T07:08:04.144Z,94.10
2023-08-25T07:09:04.218Z,94.00
2023-08-25T07:10:04.150Z,93.70
2023-08-25T07:11:04.135Z,93.40
2023-08-25T07:12:04.100Z,93.20
2023-08-25T07:13:04.107Z,93.20
2023-08-25T07:14:04.091Z,93.10
2023-08-25T07:15:04.812Z,93.00
2023-08-25T07:16:04.095Z,93.10
2023-08-25T07:17:04.033Z,93.10
2023-08-25T07:18:04.097Z,93.00
2023-08-25T07:19:04.043Z,92.60
2023-08-25T07:20:04.028Z,92.60
2023-08-25T07:21:04.927Z,93.30
2023-08-25T07:22:03.962Z,94.00
2023-08-25T07:23:03.947Z,94.51
2023-08-25T07:24:03.960Z,95.31
2023-08-25T07:25:03.929Z,95.41
2023-08-25T07:26:04.206Z,95.86
2023-08-25T07:27:03.900Z,95.47
2023-08-25T07:28:03.925Z,95.36
2023-08-25T07:29:03.864Z,95.06
2023-08-25T07:30:03.863Z,94.76
2023-08-25T07:31:03.868Z,94.76
2023-08-25T07:32:03.893Z,95.06
2023-08-25T07:33:03.848Z,95.47
2023-08-25T07:34:03.894Z,95.52
2023-08-25T07:35:03.811Z,95.72
2023-08-25T07:36:03.814Z,95.92
2023-08-25T07:37:03.794Z,96.02
2023-08-25T07:38:03.795Z,96.02
2023-08-25T07:39:03.775Z,95.92
2023-08-25T07:40:03.732Z,95.52
2023-08-25T07:41:03.712Z,95.52
2023-08-25T07:42:03.701Z,95.42
2023-08-25T07:43:03.738Z,95.36
2023-08-25T07:44:03.699Z,95.26
2023-08-25T07:45:03.668Z,95.06
2023-08-25T07:46:03.676Z,94.76
2023-08-25T07:47:03.692Z,94.66
2023-08-25T07:48:03.669Z,94.66
2023-08-25T07:49:03.645Z,94.86
2023-08-25T07:50:03.645Z,95.10
2023-08-25T07:51:03.585Z,95.10
2023-08-25T07:52:03.586Z,95.51
2023-08-25T07:53:03.557Z,95.81
2023-08-25T07:54:03.558Z,96.11
2023-08-25T07:55:03.589Z,96.41
2023-08-25T07:56:03.526Z,96.51
2023-08-25T07:57:03.554Z,96.61
2023-08-25T07:58:03.529Z,96.81
2023-08-25T07:59:03.488Z,97.02
2023-08-25T08:00:03.474Z,97.16
2023-08-25T08:01:03.494Z,97.36
2023-08-25T08:02:03.466Z,97.66
2023-08-25T08:03:03.520Z,97.86
2023-08-25T08:04:05.010Z,98.07
2023-08-25T08:05:03.444Z,98.36
2023-08-25T08:06:03.400Z,98.66
2023-08-25T08:07:03.374Z,98.97
2023-08-25T08:08:03.378Z,99.27
2023-08-25T08:09:03.391Z,99.57
2023-08-25T08:10:03.371Z,99.67
2023-08-25T08:11:03.355Z,99.87
2023-08-25T08:12:03.348Z,99.91
2023-08-25T08:13:03.304Z,99.99
2023-08-25T08:14:03.289Z,99.99
2023-08-25T08:15:03.317Z,99.99
2023-08-25T08:16:03.264Z,99.99
2023-08-25T08:17:03.327Z,99.99
2023-08-25T08:18:03.303Z,99.99
2023-08-25T08:19:03.226Z,99.99
2023-08-25T08:20:03.243Z,99.99
2023-08-25T08:21:03.246Z,99.99
2023-08-25T08:22:03.232Z,99.99
2023-08-25T08:23:03.200Z,99.99
2023-08-25T08:24:03.182Z,99.99
2023-08-25T08:25:03.142Z,99.99
2023-08-25T08:26:03.132Z,99.99
2023-08-25T08:27:03.161Z,99.99
2023-08-25T08:28:03.120Z,99.99
2023-08-25T08:29:03.105Z,99.99
2023-08-25T08:30:03.079Z,99.99
2023-08-25T08:31:03.085Z,99.99
2023-08-25T08:32:03.083Z,99.99
2023-08-25T08:33:03.108Z,99.99
2023-08-25T08:34:03.058Z,99.99
2023-08-25T08:35:03.055Z,99.99
2023-08-25T08:36:04.135Z,99.99
2023-08-25T08:37:03.013Z,99.99
2023-08-25T08:38:03.017Z,99.99
2023-08-25T08:39:02.976Z,99.99
2023-08-25T08:40:02.988Z,99.99
2023-08-25T08:41:02.977Z,99.99
2023-08-25T08:42:02.999Z,99.99
2023-08-25T08:43:02.946Z,99.99
2023-08-25T08:44:02.924Z,99.99
2023-08-25T08:45:02.975Z,99.99
2023-08-25T08:46:02.878Z,99.99
2023-08-25T08:47:02.930Z,99.99
2023-08-25T08:48:02.887Z,99.99
2023-08-25T08:49:03.386Z,99.99
2023-08-25T08:50:02.836Z,99.99
2023-08-25T08:51:02.854Z,99.99
2023-08-25T08:52:02.799Z,99.99
2023-08-25T08:53:02.856Z,99.99
2023-08-25T08:54:02.774Z,99.99
2023-08-25T08:55:02.761Z,99.99
2023-08-25T08:56:02.757Z,99.99
2023-08-25T08:57:02.737Z,99.99
2023-08-25T08:58:02.760Z,99.99
2023-08-25T08:59:02.732Z,99.99
2023-08-25T09:00:02.751Z,99.99
2023-08-25T09:01:02.726Z,99.99
2023-08-25T09:02:02.670Z,99.99
2023-08-25T09:03:02.711Z,99.99
2023-08-25T09:04:02.647Z,99.99
2023-08-25T09:05:02.700Z,99.99
2023-08-25T09:06:02.615Z,99.99
2023-08-25T09:07:02.605Z,99.99
2023-08-25T09:08:02.599Z,99.99
2023-08-25T09:09:02.617Z,99.99
2023-08-25T09:10:02.781Z,99.99
2023-08-25T09:11:02.569Z,99.99
2023-08-25T09:12:02.563Z,99.99
2023-08-25T09:13:02.536Z,99.99
2023-08-25T09:14:02.544Z,99.99
2023-08-25T09:15:02.548Z,99.99
2023-08-25T09:16:02.572Z,99.99
2023-08-25T09:17:02.514Z,99.99
2023-08-25T09:18:02.515Z,99.99
2023-08-25T09:19:02.465Z,99.99
2023-08-25T09:20:02.496Z,99.99
2023-08-25T09:21:02.429Z,99.99
2023-08-25T09:22:02.443Z,99.99
2023-08-25T09:23:02.429Z,99.99
2023-08-25T09:24:02.392Z,99.99
2023-08-25T09:25:02.430Z,99.99
2023-08-25T09:26:02.424Z,99.99
2023-08-25T09:27:02.368Z,99.99
2023-08-25T09:28:02.343Z,99.99
2023-08-25T09:29:02.338Z,99.99
2023-08-25T09:30:02.368Z,99.99
2023-08-25T09:31:02.510Z,99.99
2023-08-25T09:32:02.291Z,99.99
2023-08-25T09:33:02.351Z,99.99
2023-08-25T09:34:02.259Z,99.99
2023-08-25T09:35:02.284Z,99.99
2023-08-25T09:36:02.233Z,99.99
2023-08-25T09:37:02.296Z,99.99
2023-08-25T09:38:02.237Z,99.99
2023-08-25T09:39:06.231Z,99.99
2023-08-25T09:40:03.187Z,99.99
2023-08-25T09:41:02.256Z,99.99
2023-08-25T09:42:02.209Z,99.99
2023-08-25T09:43:02.414Z,99.99
2023-08-25T09:44:02.161Z,99.99
2023-08-25T09:45:02.120Z,99.99
2023-08-25T09:46:02.125Z,99.99
2023-08-25T09:47:02.133Z,99.99
2023-08-25T09:48:02.106Z,99.99
2023-08-25T09:49:02.117Z,99.99
2023-08-25T09:50:02.086Z,99.99
2023-08-25T09:51:02.094Z,99.99
2023-08-25T09:52:02.035Z,99.99
2023-08-25T09:53:02.044Z,99.99
2023-08-25T09:54:02.040Z,99.99
2023-08-25T09:55:02.016Z,99.99
2023-08-25T09:56:02.003Z,99.99
2023-08-25T09:57:01.991Z,99.99
2023-08-25T09:58:01.980Z,99.99
2023-08-25T09:59:01.971Z,99.99
2023-08-25T10:00:01.951Z,99.99
2023-08-25T10:01:02.185Z,99.99
2023-08-25T10:02:01.948Z,99.99
2023-08-25T10:03:01.916Z,99.99
2023-08-25T10:04:01.907Z,99.99
2023-08-25T10:05:01.893Z,99.99
2023-08-25T10:06:01.857Z,99.99
2023-08-25T10:07:01.991Z,99.99
2023-08-25T10:08:01.856Z,99.99
2023-08-25T10:09:01.817Z,99.99
2023-08-25T10:10:01.828Z,99.99
2023-08-25T10:11:01.815Z,99.99
2023-08-25T10:12:01.775Z,99.99
2023-08-25T10:13:01.782Z,99.99
2023-08-25T10:14:01.765Z,99.99
2023-08-25T10:15:01.757Z,99.99
2023-08-25T10:16:01.763Z,99.99
2023-08-25T10:17:01.746Z,99.99
2023-08-25T10:18:01.811Z,99.99
2023-08-25T10:19:01.703Z,99.99
2023-08-25T10:20:01.722Z,99.99
2023-08-25T10:21:01.688Z,99.99
2023-08-25T10:22:01.683Z,99.99
2023-08-25T10:23:01.666Z,99.99
2023-08-25T10:24:01.662Z,99.99
2023-08-25T10:25:01.684Z,99.99
2023-08-25T10:26:01.685Z,99.99
2023-08-25T10:27:01.643Z,99.99
2023-08-25T10:28:01.585Z,99.99
2023-08-25T10:29:01.584Z,99.99
2023-08-25T10:30:01.599Z,99.99
2023-08-25T10:31:01.528Z,99.99
2023-08-25T10:32:01.691Z,99.99
2023-08-25T10:33:01.589Z,99.99
2023-08-25T10:34:01.516Z,99.99
2023-08-25T10:35:01.486Z,99.99
2023-08-25T10:36:01.484Z,99.99
2023-08-25T10:37:01.459Z,99.99
2023-08-25T10:38:01.502Z,99.99
2023-08-25T10:39:01.464Z,99.99
2023-08-25T10:40:01.440Z,99.99
2023-08-25T10:41:01.406Z,99.99
2023-08-25T10:42:01.385Z,99.99
2023-08-25T10:43:01.383Z,99.99
2023-08-25T10:44:01.370Z,99.99
2023-08-25T10:45:01.420Z,99.99
2023-08-25T10:46:01.388Z,99.99
2023-08-25T10:47:01.351Z,99.99
2023-08-25T10:48:01.374Z,99.99
2023-08-25T10:49:01.308Z,99.99
2023-08-25T10:50:01.305Z,99.99
2023-08-25T10:51:01.312Z,99.99
2023-08-25T10:52:01.361Z,99.99
2023-08-25T10:53:01.264Z,99.99
2023-08-25T10:54:01.307Z,99.99
2023-08-25T10:55:01.218Z,99.99
2023-08-25T10:56:01.257Z,99.99
2023-08-25T10:57:01.222Z,99.99
2023-08-25T10:58:01.199Z,99.99
2023-08-25T10:59:01.181Z,99.99
2023-08-25T11:00:01.183Z,99.99
2023-08-25T11:01:01.175Z,99.99
2023-08-25T11:02:01.152Z,99.99
2023-08-25T11:03:01.265Z,99.99
2023-08-25T11:04:01.276Z,99.99
2023-08-25T11:05:01.093Z,99.99
2023-08-25T11:06:01.109Z,99.99
2023-08-25T11:07:01.117Z,99.99
2023-08-25T11:08:01.092Z,99.99
2023-08-25T11:09:01.078Z,99.99
2023-08-25T11:10:01.052Z,99.99
2023-08-25T11:11:01.030Z,99.99
2023-08-25T11:12:01.025Z,99.99
2023-08-25T11:13:09.649Z,99.99
2023-08-25T11:14:01.983Z,99.99
2023-08-25T11:15:00.980Z,99.99
2023-08-25T11:16:01.014Z,99.99
2023-08-25T11:17:00.969Z,99.99
2023-08-25T11:18:01.138Z,99.99
2023-08-25T11:19:00.907Z,99.99
2023-08-25T11:20:00.947Z,99.99
2023-08-25T11:21:00.899Z,99.99
2023-08-25T11:22:00.901Z,99.99
2023-08-25T11:23:17.128Z,99.99
2023-08-25T11:24:01.849Z,99.99
2023-08-25T11:25:00.827Z,99.99
2023-08-25T11:26:00.856Z,99.99
2023-08-25T11:27:00.801Z,99.99
2023-08-25T11:28:00.794Z,99.99
2023-08-25T11:29:00.815Z,99.99
2023-08-25T11:30:00.760Z,99.99
2023-08-25T11:31:00.802Z,99.99
2023-08-25T11:32:00.732Z,99.99
2023-08-25T11:33:00.810Z,99.99
2023-08-25T11:34:00.723Z,99.99
2023-08-25T11:35:00.748Z,99.99
2023-08-25T11:36:00.704Z,99.99
2023-08-25T11:37:00.729Z,99.99
2023-08-25T11:38:00.661Z,99.99
2023-08-25T11:39:00.666Z,99.99
2023-08-25T11:40:00.684Z,99.99
2023-08-25T11:41:00.676Z,99.99
2023-08-25T11:42:00.616Z,99.99
2023-08-25T11:43:00.624Z,99.99
2023-08-25T11:44:00.592Z,99.99
2023-08-25T11:45:00.569Z,99.99
2023-08-25T11:46:00.586Z,99.99
2023-08-25T11:47:01.022Z,99.99
2023-08-25T11:48:00.590Z,99.99
2023-08-25T11:49:00.566Z,99.99
2023-08-25T11:50:00.571Z,99.99
2023-08-25T11:51:00.536Z,99.99
2023-08-25T11:52:00.513Z,99.99
2023-08-25T11:53:02.493Z,99.99
2023-08-25T11:54:00.513Z,99.99
2023-08-25T11:55:00.440Z,99.99
2023-08-25T11:56:00.453Z,99.99
2023-08-25T11:57:00.421Z,99.99
2023-08-25T11:58:00.442Z,99.99
2023-08-25T11:59:00.424Z,99.99
2023-08-25T12:00:00.383Z,99.99
2023-08-25T12:01:00.459Z,99.99
2023-08-25T12:02:00.404Z,99.99
2023-08-25T12:03:00.476Z,99.99
2023-08-25T12:04:00.415Z,99.99
2023-08-25T12:05:00.910Z,99.99
2023-08-25T12:06:00.339Z,99.99
2023-08-25T12:07:00.292Z,99.99
2023-08-25T12:08:00.329Z,99.99
2023-08-25T12:09:00.267Z,99.99
2023-08-25T12:10:00.298Z,99.99
2023-08-25T12:11:00.244Z,99.99
2023-08-25T12:12:00.260Z,99.99
2023-08-25T12:13:00.275Z,99.99
2023-08-25T12:14:00.203Z,99.99
2023-08-25T12:15:00.200Z,99.99
2023-08-25T12:16:00.200Z,99.99
2023-08-25T12:17:00.239Z,99.99
2023-08-25T12:18:00.302Z,99.99
2023-08-25T12:19:00.197Z,99.99
2023-08-25T12:20:00.214Z,99.99
2023-08-25T12:21:00.111Z,99.99
2023-08-25T12:22:00.147Z,99.99
2023-08-25T12:23:00.087Z,99.99
2023-08-25T12:24:00.098Z,99.99
2023-08-25T12:25:00.089Z,99.99
2023-08-25T12:26:00.043Z,99.99
2023-08-25T12:27:00.064Z,99.99
2023-08-25T12:28:00.084Z,99.99
2023-08-25T12:29:00.032Z,99.99
2023-08-25T12:30:00.029Z,99.99
2023-08-25T12:31:00.919Z,99.99
2023-08-25T12:31:59.980Z,99.99
2023-08-25T12:33:00.190Z,99.99
2023-08-25T12:33:59.974Z,99.99
2023-08-25T12:34:59.939Z,99.99
2023-08-25T12:36:00.032Z,99.99
2023-08-25T12:36:59.951Z,99.99
2023-08-25T12:37:59.926Z,99.87
2023-08-25T12:38:59.898Z,99.99
2023-08-25T12:39:59.894Z,99.99
2023-08-25T12:40:59.930Z,99.99
2023-08-25T12:41:59.879Z,99.93
2023-08-25T12:42:59.851Z,99.22
2023-08-25T12:43:59.878Z,98.72
2023-08-25T12:44:59.803Z,99.08
2023-08-25T12:45:59.813Z,99.48
2023-08-25T12:46:59.827Z,98.28
2023-08-25T12:48:00.068Z,98.68
2023-08-25T12:48:59.809Z,99.08
2023-08-25T12:49:59.742Z,98.88
2023-08-25T12:50:59.725Z,98.88
2023-08-25T12:52:00.462Z,98.68
2023-08-25T12:52:59.752Z,98.83
2023-08-25T12:53:59.694Z,98.93